createdAt,value
2018-10-05T00:00:05.333Z,3.81
2018-10-05T00:01:11.437Z,3.83
2018-10-05T00:02:17.551Z,3.83
2018-10-05T00:03:23.691Z,3.79
2018-10-05T00:04:29.797Z,3.77
2018-10-05T00:05:35.929Z,3.72
2018-10-05T00:06:42.036Z,3.75
2018-10-05T00:07:48.144Z,3.72
2018-10-05T00:08:54.277Z,3.65
2018-10-05T00:10:00.396Z,3.60
2018-10-05T00:11:06.498Z,3.66
2018-10-05T00:12:12.621Z,3.65
2018-10-05T00:13:18.748Z,3.61
2018-10-05T00:14:24.867Z,3.59
2018-10-05T00:15:30.991Z,3.60
2018-10-05T00:16:37.090Z,3.55
2018-10-05T00:17:43.203Z,3.49
2018-10-05T00:18:49.336Z,3.45
2018-10-05T00:19:55.473Z,3.41
2018-10-05T00:21:01.567Z,3.37
2018-10-05T00:22:08.673Z,3.39
2018-10-05T00:23:13.802Z,3.34
2018-10-05T00:24:19.932Z,3.29
2018-10-05T00:25:26.034Z,3.29
2018-10-05T00:26:32.610Z,3.32
2018-10-05T00:27:38.287Z,3.38
2018-10-05T00:28:44.382Z,3.43
2018-10-05T00:29:50.516Z,3.52
2018-10-05T00:30:56.617Z,3.53
2018-10-05T00:32:02.730Z,3.53
2018-10-05T00:33:08.839Z,3.52
2018-10-05T00:34:14.958Z,3.54
2018-10-05T00:35:21.082Z,3.57
2018-10-05T00:36:27.184Z,3.56
2018-10-05T00:37:33.286Z,3.46
2018-10-05T00:38:39.412Z,3.41
2018-10-05T00:39:45.527Z,3.35
2018-10-05T00:40:51.636Z,3.34
2018-10-05T00:41:57.766Z,3.30
2018-10-05T00:43:03.870Z,3.32
2018-10-05T00:44:09.983Z,3.34
2018-10-05T00:45:16.101Z,3.31
2018-10-05T00:46:22.286Z,3.26
2018-10-05T00:47:28.320Z,3.23
2018-10-05T00:48:34.446Z,3.21
2018-10-05T00:49:40.540Z,3.20
2018-10-05T00:50:46.666Z,3.15
2018-10-05T00:51:52.761Z,3.10
2018-10-05T00:52:58.974Z,3.13
2018-10-05T00:54:04.996Z,3.16
2018-10-05T00:55:11.113Z,3.15
2018-10-05T00:56:17.244Z,3.13
2018-10-05T00:57:23.341Z,3.14
2018-10-05T00:58:29.442Z,3.15
2018-10-05T00:59:35.558Z,3.17
2018-10-05T01:00:41.672Z,3.15
2018-10-05T01:01:47.832Z,3.14
2018-10-05T01:02:53.895Z,3.18
2018-10-05T01:04:00.000Z,3.17
2018-10-05T01:05:06.112Z,3.11
2018-10-05T01:06:12.306Z,3.15
2018-10-05T01:07:18.325Z,3.17
2018-10-05T01:08:24.427Z,3.21
2018-10-05T01:09:30.541Z,3.15
2018-10-05T01:10:36.649Z,3.09
2018-10-05T01:11:42.745Z,3.16
2018-10-05T01:12:48.850Z,3.18
2018-10-05T01:13:54.968Z,3.21
2018-10-05T01:15:01.088Z,3.14
2018-10-05T01:16:07.183Z,3.10
2018-10-05T01:17:13.292Z,3.14
2018-10-05T01:18:19.397Z,3.06
2018-10-05T01:19:25.494Z,2.99
2018-10-05T01:20:32.546Z,3.00
2018-10-05T01:21:37.696Z,2.99
2018-10-05T01:22:43.804Z,3.01
2018-10-05T01:23:56.865Z,3.08
2018-10-05T01:25:04.325Z,3.04
2018-10-05T01:26:10.389Z,2.98
2018-10-05T01:27:16.504Z,2.93
2018-10-05T01:28:22.598Z,2.85
2018-10-05T01:29:28.720Z,2.85
2018-10-05T01:30:34.822Z,2.93
2018-10-05T01:31:40.920Z,2.95
2018-10-05T01:32:47.021Z,2.88
2018-10-05T01:33:52.631Z,2.81
2018-10-05T01:34:59.237Z,2.74
2018-10-05T01:36:05.358Z,2.74
2018-10-05T01:37:11.451Z,2.75
2018-10-05T01:38:17.555Z,2.75
2018-10-05T01:39:23.662Z,2.74
2018-10-05T01:40:29.772Z,2.70
2018-10-05T01:41:35.874Z,2.79
2018-10-05T01:42:41.973Z,2.77
2018-10-05T01:43:48.085Z,2.75
2018-10-05T01:44:54.323Z,2.78
2018-10-05T01:46:00.316Z,2.87
2018-10-05T01:47:06.404Z,2.95
2018-10-05T01:48:12.525Z,3.08
2018-10-05T01:49:18.605Z,3.26
2018-10-05T01:50:24.706Z,3.32
2018-10-05T01:51:30.813Z,3.36
2018-10-05T01:52:36.907Z,3.40
2018-10-05T01:53:43.015Z,3.37
2018-10-05T01:54:49.125Z,3.27
2018-10-05T01:55:55.265Z,3.18
2018-10-05T01:57:01.338Z,3.09
2018-10-05T01:58:07.435Z,2.97
2018-10-05T01:59:13.544Z,2.88
2018-10-05T02:00:19.638Z,2.80
2018-10-05T02:01:25.752Z,2.75
2018-10-05T02:02:31.891Z,2.72
2018-10-05T02:03:37.940Z,2.75
2018-10-05T02:04:44.040Z,2.79
2018-10-05T02:05:50.163Z,2.86
2018-10-05T02:06:56.275Z,2.89
2018-10-05T02:08:02.349Z,2.86
2018-10-05T02:09:08.456Z,2.82
2018-10-05T02:10:15.546Z,2.76
2018-10-05T02:11:20.668Z,2.75
2018-10-05T02:12:26.753Z,2.74
2018-10-05T02:13:32.910Z,2.74
2018-10-05T02:14:38.963Z,2.80
2018-10-05T02:15:45.068Z,2.85
2018-10-05T02:16:51.164Z,2.80
2018-10-05T02:17:57.253Z,2.77
2018-10-05T02:19:03.358Z,2.76
2018-10-05T02:20:09.471Z,2.75
2018-10-05T02:21:15.557Z,2.77
2018-10-05T02:22:21.661Z,2.78
2018-10-05T02:23:27.772Z,2.73
2018-10-05T02:24:33.856Z,2.69
2018-10-05T02:25:39.967Z,2.65
2018-10-05T02:26:46.046Z,2.57
2018-10-05T02:27:53.161Z,2.51
2018-10-05T02:28:58.277Z,2.48
2018-10-05T02:30:04.346Z,2.50
2018-10-05T02:31:10.442Z,2.52
2018-10-05T02:32:16.541Z,2.53
2018-10-05T02:33:22.643Z,2.55
2018-10-05T02:34:28.741Z,2.57
2018-10-05T02:35:34.838Z,2.57
2018-10-05T02:36:40.934Z,2.58
2018-10-05T02:37:47.046Z,2.56
2018-10-05T02:38:53.115Z,2.55
2018-10-05T02:39:59.254Z,2.58
2018-10-05T02:41:05.333Z,2.57
2018-10-05T02:42:11.415Z,2.56
2018-10-05T02:43:17.508Z,2.54
2018-10-05T02:44:24.595Z,2.50
2018-10-05T02:45:29.696Z,2.44
2018-10-05T02:46:35.800Z,2.42
2018-10-05T02:47:41.887Z,2.37
2018-10-05T02:48:47.996Z,2.33
2018-10-05T02:49:54.071Z,2.28
2018-10-05T02:51:00.148Z,2.26
2018-10-05T02:52:06.254Z,2.27
2018-10-05T02:53:12.345Z,2.25
2018-10-05T02:54:18.440Z,2.22
2018-10-05T02:55:24.535Z,2.19
2018-10-05T02:56:30.612Z,2.17
2018-10-05T02:57:36.707Z,2.18
2018-10-05T02:58:42.790Z,2.17
2018-10-05T02:59:48.892Z,2.18
2018-10-05T03:00:54.984Z,2.17
2018-10-05T03:02:01.087Z,2.23
2018-10-05T03:03:07.285Z,2.26
2018-10-05T03:04:13.275Z,2.24
2018-10-05T03:05:19.338Z,2.30
2018-10-05T03:06:25.435Z,2.32
2018-10-05T03:07:31.535Z,2.35
2018-10-05T03:08:37.612Z,2.29
2018-10-05T03:09:43.684Z,2.21
2018-10-05T03:10:49.789Z,2.17
2018-10-05T03:11:55.879Z,2.21
2018-10-05T03:13:01.949Z,2.21
2018-10-05T03:14:08.046Z,2.20
2018-10-05T03:15:14.128Z,2.24
2018-10-05T03:16:20.233Z,2.20
2018-10-05T03:17:26.307Z,2.11
2018-10-05T03:18:32.396Z,2.02
2018-10-05T03:19:38.516Z,1.97
2018-10-05T03:20:44.583Z,1.95
2018-10-05T03:21:50.652Z,1.95
2018-10-05T03:22:56.740Z,1.96
2018-10-05T03:24:02.829Z,2.04
2018-10-05T03:25:08.921Z,2.12
2018-10-05T03:26:15.006Z,2.15
2018-10-05T03:27:21.088Z,2.11
2018-10-05T03:28:27.282Z,2.01
2018-10-05T03:29:33.276Z,2.00
2018-10-05T03:30:39.341Z,2.01
2018-10-05T03:31:45.891Z,2.01
2018-10-05T03:32:51.509Z,1.98
2018-10-05T03:33:57.594Z,1.94
2018-10-05T03:35:03.678Z,1.94
2018-10-05T03:36:09.751Z,1.92
2018-10-05T03:37:15.844Z,1.88
2018-10-05T03:38:21.902Z,1.90
2018-10-05T03:39:29.001Z,1.97
2018-10-05T03:40:34.062Z,2.05
2018-10-05T03:41:40.176Z,2.10
2018-10-05T03:42:46.227Z,2.08
2018-10-05T03:43:52.303Z,2.03
2018-10-05T03:44:58.373Z,1.99
2018-10-05T03:46:04.471Z,1.98
2018-10-05T03:47:10.539Z,1.95
2018-10-05T03:48:16.617Z,1.89
2018-10-05T03:49:22.694Z,1.92
2018-10-05T03:50:28.773Z,1.94
2018-10-05T03:51:34.872Z,1.95
2018-10-05T03:52:40.943Z,1.95
2018-10-05T03:53:47.013Z,2.00
2018-10-05T03:54:53.083Z,2.00
2018-10-05T03:55:59.151Z,2.05
2018-10-05T03:57:05.258Z,2.12
2018-10-05T03:58:11.326Z,2.27
2018-10-05T03:59:17.395Z,2.37
2018-10-05T04:00:23.478Z,2.28
2018-10-05T04:01:29.573Z,2.15
2018-10-05T04:02:35.628Z,2.07
2018-10-05T04:03:41.708Z,1.99
2018-10-05T04:04:47.804Z,1.92
2018-10-05T04:05:53.879Z,1.86
2018-10-05T04:06:59.961Z,1.78
2018-10-05T04:08:06.035Z,1.74
2018-10-05T04:09:12.120Z,1.70
2018-10-05T04:10:18.284Z,1.67
2018-10-05T04:11:24.270Z,1.67
2018-10-05T04:12:30.350Z,1.67
2018-10-05T04:13:36.468Z,1.65
2018-10-05T04:14:42.568Z,1.65
2018-10-05T04:15:48.607Z,1.62
2018-10-05T04:16:55.206Z,1.58
2018-10-05T04:18:00.800Z,1.58
2018-10-05T04:19:07.715Z,1.60
2018-10-05T04:21:19.029Z,1.62
2018-10-05T04:22:25.113Z,1.63
2018-10-05T04:23:31.152Z,1.63
2018-10-05T04:24:37.215Z,1.62
2018-10-05T04:25:43.301Z,1.60
2018-10-05T04:26:49.378Z,1.59
2018-10-05T04:27:55.475Z,1.61
2018-10-05T04:29:01.526Z,1.65
2018-10-05T04:30:07.543Z,1.65
2018-10-05T04:31:13.664Z,1.62
2018-10-05T04:32:19.735Z,1.62
2018-10-05T04:33:25.837Z,1.62
2018-10-05T04:34:31.871Z,1.61
2018-10-05T04:35:38.074Z,1.60
2018-10-05T04:36:44.040Z,1.63
2018-10-05T04:37:50.098Z,1.63
2018-10-05T04:38:56.594Z,1.66
2018-10-05T04:40:02.344Z,1.73
2018-10-05T04:41:08.283Z,1.70
2018-10-05T04:42:14.344Z,1.59
2018-10-05T04:43:20.436Z,1.56
2018-10-05T04:44:26.506Z,1.53
2018-10-05T04:45:32.569Z,1.54
2018-10-05T04:46:38.637Z,1.53
2018-10-05T04:47:44.707Z,1.50
2018-10-05T04:48:50.796Z,1.53
2018-10-05T04:49:56.943Z,1.59
2018-10-05T04:51:02.934Z,1.62
2018-10-05T04:52:09.008Z,1.63
2018-10-05T04:53:15.079Z,1.67
2018-10-05T04:54:21.183Z,1.68
2018-10-05T04:55:27.215Z,1.65
2018-10-05T04:56:33.295Z,1.64
2018-10-05T04:57:39.353Z,1.64
2018-10-05T04:58:45.908Z,1.61
2018-10-05T04:59:51.512Z,1.59
2018-10-05T05:00:57.580Z,1.57
2018-10-05T05:02:03.642Z,1.61
2018-10-05T05:03:09.748Z,1.66
2018-10-05T05:04:15.807Z,1.60
2018-10-05T05:05:21.877Z,1.62
2018-10-05T05:06:27.938Z,1.62
2018-10-05T05:07:34.005Z,1.61
2018-10-05T05:08:40.095Z,1.59
2018-10-05T05:09:46.156Z,1.58
2018-10-05T05:10:52.279Z,1.58
2018-10-05T05:11:58.297Z,1.61
2018-10-05T05:13:04.387Z,1.67
2018-10-05T05:14:10.479Z,1.70
2018-10-05T05:15:16.521Z,1.65
2018-10-05T05:16:22.592Z,1.55
2018-10-05T05:17:28.759Z,1.49
2018-10-05T05:18:34.745Z,1.49
2018-10-05T05:19:40.891Z,1.51
2018-10-05T05:20:46.885Z,1.56
2018-10-05T05:21:52.942Z,1.55
2018-10-05T05:22:59.034Z,1.51
2018-10-05T05:24:05.115Z,1.46
2018-10-05T05:25:11.170Z,1.49
2018-10-05T05:26:17.239Z,1.55
2018-10-05T05:27:23.329Z,1.64
2018-10-05T05:28:29.378Z,1.64
2018-10-05T05:29:35.485Z,1.54
2018-10-05T05:30:41.522Z,1.47
2018-10-05T05:31:47.599Z,1.43
2018-10-05T05:32:53.676Z,1.42
2018-10-05T05:34:00.781Z,1.44
2018-10-05T05:35:05.810Z,1.45
2018-10-05T05:36:11.887Z,1.43
2018-10-05T05:37:17.970Z,1.43
2018-10-05T05:38:24.036Z,1.42
2018-10-05T05:39:30.112Z,1.45
2018-10-05T05:40:36.282Z,1.51
2018-10-05T05:41:42.282Z,1.57
2018-10-05T05:42:48.333Z,1.60
2018-10-05T05:43:54.400Z,1.63
2018-10-05T05:45:00.481Z,1.64
2018-10-05T05:46:06.538Z,1.66
2018-10-05T05:47:12.719Z,1.66
2018-10-05T05:48:18.692Z,1.65
2018-10-05T05:49:24.758Z,1.67
2018-10-05T05:50:30.873Z,1.71
2018-10-05T05:51:37.913Z,1.80
2018-10-05T05:52:43.288Z,1.90
2018-10-05T05:53:49.093Z,1.98
2018-10-05T05:54:55.152Z,2.00
2018-10-05T05:56:01.225Z,1.98
2018-10-05T05:57:08.294Z,2.04
2018-10-05T05:58:13.368Z,2.08
2018-10-05T05:59:19.460Z,2.13
2018-10-05T06:00:25.555Z,2.21
2018-10-05T06:01:31.602Z,2.25
2018-10-05T06:02:37.686Z,2.21
2018-10-05T06:03:43.774Z,2.22
2018-10-05T06:04:49.854Z,2.21
2018-10-05T06:05:55.959Z,2.22
2018-10-05T06:07:02.013Z,2.24
2018-10-05T06:08:08.131Z,2.23
2018-10-05T06:09:14.160Z,2.28
2018-10-05T06:10:21.891Z,2.33
2018-10-05T06:11:26.368Z,2.36
2018-10-05T06:12:32.432Z,2.44
2018-10-05T06:13:38.514Z,2.43
2018-10-05T06:14:44.593Z,2.42
2018-10-05T06:15:50.726Z,2.38
2018-10-05T06:16:56.765Z,2.40
2018-10-05T06:18:02.847Z,2.44
2018-10-05T06:19:08.931Z,2.46
2018-10-05T06:20:15.024Z,2.49
2018-10-05T06:21:21.163Z,2.49
2018-10-05T06:22:27.482Z,2.51
2018-10-05T06:23:33.276Z,2.51
2018-10-05T06:24:39.359Z,2.51
2018-10-05T06:25:45.473Z,2.51
2018-10-05T06:26:51.540Z,2.51
2018-10-05T06:27:57.644Z,2.51
2018-10-05T06:29:04.191Z,2.53
2018-10-05T06:30:09.828Z,2.58
2018-10-05T06:31:15.985Z,2.62
2018-10-05T06:32:22.009Z,2.68
2018-10-05T06:33:28.098Z,2.76
2018-10-05T06:35:40.296Z,2.93
2018-10-05T06:36:46.375Z,3.03
2018-10-05T06:37:52.492Z,3.12
2018-10-05T06:38:58.609Z,3.17
2018-10-05T06:40:04.669Z,3.30
2018-10-05T06:41:10.793Z,3.35
2018-10-05T06:42:16.883Z,3.35
2018-10-05T06:43:22.967Z,3.31
2018-10-05T06:44:29.107Z,3.28
2018-10-05T06:45:35.653Z,3.30
2018-10-05T06:46:41.494Z,3.34
2018-10-05T06:47:47.394Z,3.40
2018-10-05T06:48:53.502Z,3.46
2018-10-05T06:49:59.611Z,3.55
2018-10-05T06:51:05.735Z,3.61
2018-10-05T06:52:11.831Z,3.66
2018-10-05T06:53:17.976Z,3.74
2018-10-05T06:54:24.044Z,3.81
2018-10-05T06:55:30.155Z,3.85
2018-10-05T06:56:36.286Z,3.89
2018-10-05T06:57:42.393Z,3.92
2018-10-05T06:58:48.493Z,3.94
2018-10-05T06:59:54.617Z,3.97
2018-10-05T07:01:00.734Z,4.02
2018-10-05T07:02:06.840Z,4.05
2018-10-05T07:03:12.973Z,4.08
2018-10-05T07:04:19.095Z,4.18
2018-10-05T07:05:25.282Z,4.26
2018-10-05T07:06:31.330Z,4.26
2018-10-05T07:07:38.539Z,4.33
2018-10-05T07:08:43.579Z,4.37
2018-10-05T07:09:49.695Z,4.46
2018-10-05T07:10:55.854Z,4.46
2018-10-05T07:12:01.971Z,4.46
2018-10-05T07:13:08.084Z,4.45
2018-10-05T07:14:14.208Z,4.49
2018-10-05T07:15:20.346Z,4.56
2018-10-05T07:16:26.479Z,4.64
2018-10-05T07:17:32.625Z,4.66
2018-10-05T07:18:38.741Z,4.69
2018-10-05T07:19:44.897Z,4.80
2018-10-05T07:20:51.018Z,4.83
2018-10-05T07:21:57.134Z,4.87
2018-10-05T07:23:03.468Z,4.92
2018-10-05T07:24:09.417Z,4.96
2018-10-05T07:25:15.563Z,4.98
2018-10-05T07:26:21.700Z,5.00
2018-10-05T07:27:27.830Z,4.98
2018-10-05T07:28:34.120Z,5.06
2018-10-05T07:29:40.111Z,5.20
2018-10-05T07:30:46.725Z,5.26
2018-10-05T07:31:52.407Z,5.24
2018-10-05T07:32:58.564Z,5.25
2018-10-05T07:34:04.692Z,5.26
2018-10-05T07:35:10.852Z,5.32
2018-10-05T07:36:17.467Z,5.48
2018-10-05T07:37:23.189Z,5.59
2018-10-05T07:38:29.300Z,5.69
2018-10-05T07:39:35.453Z,5.69
2018-10-05T07:40:41.618Z,5.70
2018-10-05T07:41:47.769Z,5.68
2018-10-05T07:42:53.984Z,5.69
2018-10-05T07:44:00.078Z,5.72
2018-10-05T07:45:06.228Z,5.75
2018-10-05T07:46:12.382Z,5.90
2018-10-05T07:47:18.548Z,5.97
2018-10-05T07:48:24.708Z,6.06
2018-10-05T07:49:30.871Z,6.16
2018-10-05T07:50:37.033Z,6.25
2018-10-05T07:51:43.358Z,6.41
2018-10-05T07:52:49.367Z,6.42
2018-10-05T07:53:55.534Z,6.50
2018-10-05T07:55:01.976Z,6.58
2018-10-05T07:56:07.916Z,6.65
2018-10-05T07:57:14.063Z,6.73
2018-10-05T07:58:20.218Z,6.78
2018-10-05T07:59:26.397Z,6.87
2018-10-05T08:00:32.572Z,7.05
2018-10-05T08:01:38.762Z,7.07
2018-10-05T08:02:44.933Z,7.11
2018-10-05T08:03:51.106Z,7.08
2018-10-05T08:04:57.280Z,6.98
2018-10-05T08:06:03.467Z,6.92
2018-10-05T08:07:09.149Z,6.92
2018-10-05T08:08:15.834Z,6.95
2018-10-05T08:09:22.024Z,7.02
2018-10-05T08:10:28.202Z,7.23
2018-10-05T08:11:34.390Z,7.37
2018-10-05T08:12:40.586Z,7.49
2018-10-05T08:13:46.780Z,7.55
2018-10-05T08:14:52.977Z,7.50
2018-10-05T08:15:59.163Z,7.53
2018-10-05T08:17:05.369Z,7.73
2018-10-05T08:18:11.579Z,7.86
2018-10-05T08:19:17.772Z,7.93
2018-10-05T08:20:23.980Z,8.03
2018-10-05T08:21:30.297Z,8.21
2018-10-05T08:22:36.413Z,8.22
2018-10-05T08:23:42.628Z,8.38
2018-10-05T08:24:48.852Z,8.50
2018-10-05T08:25:55.071Z,8.60
2018-10-05T08:27:01.405Z,8.55
2018-10-05T08:28:07.513Z,8.55
2018-10-05T08:29:13.742Z,8.49
2018-10-05T08:30:19.980Z,8.55
2018-10-05T08:31:26.225Z,8.63
2018-10-05T08:32:32.463Z,8.71
2018-10-05T08:33:38.698Z,8.66
2018-10-05T08:34:44.930Z,8.57
2018-10-05T08:35:51.282Z,8.51
2018-10-05T08:36:57.414Z,8.46
2018-10-05T08:38:03.646Z,8.41
2018-10-05T08:39:09.891Z,8.34
2018-10-05T08:40:16.232Z,8.31
2018-10-05T08:41:22.404Z,8.33
2018-10-05T08:42:28.634Z,8.36
2018-10-05T08:43:34.899Z,8.46
2018-10-05T08:44:41.137Z,8.54
2018-10-05T08:45:47.410Z,8.60
2018-10-05T08:46:53.664Z,8.62
2018-10-05T08:47:59.911Z,8.63
2018-10-05T08:49:06.290Z,8.67
2018-10-05T08:50:12.434Z,8.75
2018-10-05T08:51:18.700Z,8.85
2018-10-05T08:52:24.966Z,8.91
2018-10-05T08:53:31.267Z,8.99
2018-10-05T08:54:37.490Z,9.01
2018-10-05T08:55:43.763Z,9.09
2018-10-05T08:56:50.028Z,9.15
2018-10-05T08:57:56.318Z,9.16
2018-10-05T08:59:02.541Z,9.26
2018-10-05T09:00:08.883Z,9.30
2018-10-05T09:01:15.096Z,9.30
2018-10-05T09:02:21.377Z,9.28
2018-10-05T09:03:27.648Z,9.34
2018-10-05T09:04:34.023Z,9.42
2018-10-05T09:05:40.292Z,9.43
2018-10-05T09:06:46.494Z,9.45
2018-10-05T09:07:52.754Z,9.48
2018-10-05T09:08:59.021Z,9.50
2018-10-05T09:10:05.336Z,9.55
2018-10-05T09:11:11.621Z,9.61
2018-10-05T09:12:17.885Z,9.70
2018-10-05T09:13:24.280Z,9.79
2018-10-05T09:14:30.949Z,9.82
2018-10-05T09:15:36.743Z,9.92
2018-10-05T09:16:43.041Z,9.99
2018-10-05T09:17:49.391Z,10.02
2018-10-05T09:18:55.613Z,10.13
2018-10-05T09:20:01.910Z,10.19
2018-10-05T09:21:08.283Z,10.28
2018-10-05T09:22:14.491Z,10.27
2018-10-05T09:23:20.802Z,10.32
2018-10-05T09:24:27.092Z,10.37
2018-10-05T09:25:33.396Z,10.47
2018-10-05T09:26:39.708Z,10.57
2018-10-05T09:27:46.011Z,10.63
2018-10-05T09:28:52.305Z,10.68
2018-10-05T09:29:59.099Z,10.71
2018-10-05T09:31:04.939Z,10.73
2018-10-05T09:32:11.227Z,10.74
2018-10-05T09:33:17.038Z,10.72
2018-10-05T09:34:23.856Z,10.73
2018-10-05T09:35:30.277Z,10.75
2018-10-05T09:36:36.490Z,10.84
2018-10-05T09:37:42.824Z,10.91
2018-10-05T09:38:49.101Z,11.00
2018-10-05T09:39:55.431Z,11.04
2018-10-05T09:41:01.742Z,11.09
2018-10-05T09:42:08.082Z,11.16
2018-10-05T09:43:14.437Z,11.19
2018-10-05T09:44:20.732Z,11.25
2018-10-05T09:45:27.049Z,11.27
2018-10-05T09:46:33.387Z,11.32
2018-10-05T09:47:39.720Z,11.34
2018-10-05T09:48:46.046Z,11.36
2018-10-05T09:49:52.374Z,11.45
2018-10-05T09:50:58.710Z,11.55
2018-10-05T09:52:05.101Z,11.67
2018-10-05T09:53:10.885Z,11.80
2018-10-05T09:54:17.729Z,11.92
2018-10-05T09:55:24.055Z,11.97
2018-10-05T09:56:30.407Z,12.00
2018-10-05T09:57:36.757Z,12.05
2018-10-05T09:58:43.115Z,12.07
2018-10-05T09:59:49.046Z,12.07
2018-10-05T10:00:55.809Z,12.10
2018-10-05T10:02:02.170Z,12.15
2018-10-05T10:03:08.533Z,12.21
2018-10-05T10:04:14.875Z,12.25
2018-10-05T10:05:21.220Z,12.33
2018-10-05T10:06:27.592Z,12.39
2018-10-05T10:07:33.459Z,12.42
2018-10-05T10:08:40.316Z,12.50
2018-10-05T10:09:46.699Z,12.56
2018-10-05T10:10:54.043Z,12.60
2018-10-05T10:11:59.429Z,12.69
2018-10-05T10:13:05.793Z,12.85
2018-10-05T10:14:12.277Z,12.97
2018-10-05T10:15:18.042Z,13.00
2018-10-05T10:16:24.413Z,13.09
2018-10-05T10:17:31.303Z,13.17
2018-10-05T10:18:37.181Z,13.21
2018-10-05T10:19:43.568Z,13.28
2018-10-05T10:20:50.447Z,13.35
2018-10-05T10:21:56.858Z,13.36
2018-10-05T10:23:03.222Z,13.35
2018-10-05T10:24:09.620Z,13.34
2018-10-05T10:25:16.021Z,13.31
2018-10-05T10:26:22.411Z,13.28
2018-10-05T10:27:28.827Z,13.28
2018-10-05T10:28:36.356Z,13.28
2018-10-05T10:29:41.618Z,13.36
2018-10-05T10:30:48.015Z,13.41
2018-10-05T10:31:53.934Z,13.38
2018-10-05T10:33:00.335Z,13.45
2018-10-05T10:34:07.229Z,13.51
2018-10-05T10:35:13.645Z,13.58
2018-10-05T10:36:20.056Z,13.63
2018-10-05T10:37:26.472Z,13.69
2018-10-05T10:38:32.882Z,13.70
2018-10-05T10:39:39.310Z,13.73
2018-10-05T10:40:46.726Z,13.72
2018-10-05T10:41:52.136Z,13.79
2018-10-05T10:42:58.627Z,13.90
2018-10-05T10:44:04.495Z,13.97
2018-10-05T10:45:11.411Z,13.98
2018-10-05T10:46:17.351Z,14.02
2018-10-05T10:47:24.286Z,14.08
2018-10-05T10:48:30.695Z,14.15
2018-10-05T10:49:37.141Z,14.23
2018-10-05T10:50:43.576Z,14.29
2018-10-05T10:51:50.075Z,14.33
2018-10-05T10:52:56.490Z,14.31
2018-10-05T10:54:02.951Z,14.34
2018-10-05T10:55:09.350Z,14.36
2018-10-05T10:56:15.301Z,14.44
2018-10-05T10:57:22.706Z,14.56
2018-10-05T10:58:28.677Z,14.72
2018-10-05T10:59:34.595Z,14.81
2018-10-05T11:00:41.621Z,14.82
2018-10-05T11:01:47.695Z,14.86
2018-10-05T11:02:54.136Z,14.91
2018-10-05T11:04:00.953Z,14.96
2018-10-05T11:05:07.348Z,14.95
2018-10-05T11:06:13.804Z,14.97
2018-10-05T11:07:20.315Z,15.00
2018-10-05T11:08:26.243Z,15.05
2018-10-05T11:09:33.179Z,15.16
2018-10-05T11:10:39.638Z,15.28
2018-10-05T11:11:45.620Z,15.43
2018-10-05T11:12:52.609Z,15.51
2018-10-05T11:13:59.049Z,15.53
2018-10-05T11:15:05.526Z,15.52
2018-10-05T11:16:11.495Z,15.56
2018-10-05T11:17:18.573Z,15.59
2018-10-05T11:18:24.982Z,15.65
2018-10-05T11:19:30.977Z,15.77
2018-10-05T11:20:38.025Z,15.89
2018-10-05T11:21:44.587Z,16.01
2018-10-05T11:22:51.195Z,16.14
2018-10-05T11:23:57.831Z,16.16
2018-10-05T11:25:04.472Z,16.22
2018-10-05T11:26:11.177Z,16.33
2018-10-05T11:27:17.397Z,16.46
2018-10-05T11:28:24.347Z,16.53
2018-10-05T11:29:30.935Z,16.66
2018-10-05T11:30:37.725Z,16.87
2018-10-05T11:31:44.564Z,17.04
2018-10-05T11:32:51.942Z,17.19
2018-10-05T11:33:59.327Z,17.28
2018-10-05T11:35:05.281Z,17.39
2018-10-05T11:36:12.593Z,17.48
2018-10-05T11:37:19.045Z,17.54
2018-10-05T11:38:26.486Z,17.59
2018-10-05T11:39:32.942Z,17.69
2018-10-05T11:40:40.414Z,17.75
2018-10-05T11:41:46.887Z,17.81
2018-10-05T11:42:54.368Z,17.86
2018-10-05T11:44:02.334Z,17.92
2018-10-05T11:45:08.072Z,17.94
2018-10-05T11:46:15.412Z,18.01
2018-10-05T11:47:22.425Z,18.05
2018-10-05T11:48:29.488Z,18.16
2018-10-05T11:49:37.509Z,18.16
2018-10-05T11:50:43.573Z,18.18
2018-10-05T11:51:50.604Z,18.24
2018-10-05T11:52:58.708Z,18.36
2018-10-05T11:54:04.803Z,18.35
2018-10-05T11:55:11.894Z,18.30
2018-10-05T11:56:19.491Z,18.32
2018-10-05T11:57:26.065Z,18.36
2018-10-05T11:58:33.237Z,18.47
2018-10-05T11:59:40.434Z,18.59
2018-10-05T12:00:47.016Z,18.69
2018-10-05T12:01:54.305Z,18.70
2018-10-05T12:03:01.338Z,18.79
2018-10-05T12:04:09.010Z,18.93
2018-10-05T12:05:16.372Z,19.08
2018-10-05T12:06:23.421Z,19.14
2018-10-05T12:07:30.060Z,19.23
2018-10-05T12:08:37.260Z,19.25
2018-10-05T12:09:44.455Z,19.25
2018-10-05T12:10:52.132Z,19.25
2018-10-05T12:11:58.841Z,19.25
2018-10-05T12:13:06.554Z,19.28
2018-10-05T12:14:13.757Z,19.33
2018-10-05T12:15:21.005Z,19.37
2018-10-05T12:16:27.681Z,19.45
2018-10-05T12:17:35.387Z,19.48
2018-10-05T12:18:42.177Z,19.51
2018-10-05T12:19:49.853Z,19.53
2018-10-05T12:20:56.553Z,19.67
2018-10-05T12:22:03.777Z,19.69
2018-10-05T12:23:11.035Z,19.70
2018-10-05T12:24:18.724Z,19.77
2018-10-05T12:25:25.955Z,19.81
2018-10-05T12:26:33.332Z,19.79
2018-10-05T12:27:40.466Z,19.72
2018-10-05T12:28:47.663Z,19.66
2018-10-05T12:29:54.405Z,19.66
2018-10-05T12:31:01.632Z,19.74
2018-10-05T12:32:09.380Z,19.82
2018-10-05T12:33:16.649Z,19.88
2018-10-05T12:34:23.876Z,19.90
2018-10-05T12:35:31.136Z,20.02
2018-10-05T12:36:38.413Z,20.02
2018-10-05T12:37:45.153Z,20.00
2018-10-05T12:38:52.406Z,19.98
2018-10-05T12:39:59.659Z,20.06
2018-10-05T12:41:08.407Z,20.12
2018-10-05T12:42:14.644Z,20.14
2018-10-05T12:43:21.924Z,20.17
2018-10-05T12:44:29.286Z,20.22
2018-10-05T12:45:36.421Z,20.28
2018-10-05T12:46:43.196Z,20.30
2018-10-05T12:47:50.963Z,20.30
2018-10-05T12:48:58.225Z,20.38
2018-10-05T12:50:06.014Z,20.41
2018-10-05T12:51:12.270Z,20.44
2018-10-05T12:52:19.546Z,20.45
2018-10-05T12:53:27.330Z,20.43
2018-10-05T12:54:34.611Z,20.40
2018-10-05T12:55:41.885Z,20.46
2018-10-05T12:56:48.684Z,20.46
2018-10-05T12:57:56.471Z,20.44
2018-10-05T12:59:03.766Z,20.51
2018-10-05T13:00:11.073Z,20.62
2018-10-05T13:01:17.900Z,20.68
2018-10-05T13:02:25.724Z,20.78
2018-10-05T13:03:33.070Z,20.79
2018-10-05T13:04:40.457Z,20.75
2018-10-05T13:05:47.321Z,20.82
2018-10-05T13:06:55.222Z,20.87
2018-10-05T13:08:02.616Z,20.96
2018-10-05T13:09:09.533Z,21.03
2018-10-05T13:10:16.953Z,20.97
2018-10-05T13:11:24.867Z,20.94
2018-10-05T13:12:31.776Z,20.91
2018-10-05T13:13:39.696Z,20.97
2018-10-05T13:14:47.107Z,20.96
2018-10-05T13:15:54.518Z,20.95
2018-10-05T13:17:01.935Z,20.93
2018-10-05T13:18:08.845Z,20.93
2018-10-05T13:19:16.762Z,21.01
2018-10-05T13:20:24.288Z,21.12
2018-10-05T13:21:31.152Z,21.15
2018-10-05T13:22:39.066Z,21.15
2018-10-05T13:23:46.007Z,21.24
2018-10-05T13:24:54.431Z,21.27
2018-10-05T13:26:01.384Z,21.33
2018-10-05T13:27:08.831Z,21.32
2018-10-05T13:28:16.280Z,21.47
2018-10-05T13:29:23.711Z,21.60
2018-10-05T13:30:30.668Z,21.68
2018-10-05T13:31:38.608Z,21.72
2018-10-05T13:32:45.556Z,21.73
2018-10-05T13:33:53.495Z,21.76
2018-10-05T13:35:00.977Z,21.72
2018-10-05T13:36:08.343Z,21.72
2018-10-05T13:37:16.415Z,21.75
2018-10-05T13:38:22.772Z,21.73
2018-10-05T13:39:30.081Z,21.73
2018-10-05T13:40:37.498Z,21.76
2018-10-05T13:41:44.917Z,21.75
2018-10-05T13:42:52.762Z,21.85
2018-10-05T13:44:00.139Z,21.90
2018-10-05T13:45:07.523Z,22.02
2018-10-05T13:46:14.902Z,22.14
2018-10-05T13:47:21.747Z,22.20
2018-10-05T13:48:29.604Z,22.26
2018-10-05T13:49:36.466Z,22.28
2018-10-05T13:50:44.318Z,22.21
2018-10-05T13:51:51.151Z,22.15
2018-10-05T13:52:58.999Z,22.23
2018-10-05T13:54:06.396Z,22.21
2018-10-05T13:55:13.684Z,22.26
2018-10-05T13:56:21.051Z,22.24
2018-10-05T13:57:27.872Z,22.18
2018-10-05T13:58:36.158Z,22.18
2018-10-05T13:59:42.539Z,22.24
2018-10-05T14:00:50.367Z,22.36
2018-10-05T14:01:57.298Z,22.40
2018-10-05T14:03:04.510Z,22.35
2018-10-05T14:04:11.822Z,22.35
2018-10-05T14:05:19.637Z,22.36
2018-10-05T14:06:26.970Z,22.33
2018-10-05T14:07:35.274Z,22.32
2018-10-05T14:08:41.559Z,22.41
2018-10-05T14:09:48.857Z,22.46
2018-10-05T14:10:56.154Z,22.47
2018-10-05T14:12:03.439Z,22.60
2018-10-05T14:13:10.222Z,22.61
2018-10-05T14:14:17.999Z,22.64
2018-10-05T14:15:25.272Z,22.69
2018-10-05T14:16:32.027Z,22.61
2018-10-05T14:17:39.787Z,22.60
2018-10-05T14:18:46.541Z,22.54
2018-10-05T14:19:54.293Z,22.52
2018-10-05T14:21:01.537Z,22.58
2018-10-05T14:22:08.269Z,22.72
2018-10-05T14:23:15.516Z,22.87
2018-10-05T14:24:22.747Z,23.00
2018-10-05T14:25:30.522Z,23.03
2018-10-05T14:26:37.676Z,23.03
2018-10-05T14:27:44.886Z,23.01
2018-10-05T14:28:51.589Z,22.96
2018-10-05T14:29:58.774Z,22.95
2018-10-05T14:31:05.983Z,22.86
2018-10-05T14:32:13.684Z,22.74
2018-10-05T14:33:21.869Z,22.67
2018-10-05T14:34:27.566Z,22.71